Akureyri, Iceland
Current Conditions -  °F | °C
As of 2:00 AM on Tuesday 21 Oct 2014 (Local Time) from BIAR Reporting Station
Light Snow Light Snow  
Wind Chill: 17°   Ceiling: 2900
Heat Index: 27°   Visibility: 4mi
Dew Point: 25°   Wind: 10mph
Humidity: 93%   Direction: 340°NNW
Pressure: 29.23"   Gusts: NA
Location:  65.69°N, 18.12°W
Report Text: BIAR 210200Z 34009KT 6000 -SN SCT021 OVC029 M03/M04 Q0990
Loading
Personal Weather Stations






























Interactive Weather Map
Tropical Storm Tracking
New forecast layout! Learn more

10-Day Weather Forecast

Advertisements
Track Severe Weather on mobile